sensor_id;sensor_type;location;lat;lon;timestamp;pressure;altitude;pressure_sealevel;temperature;humidity
2000;BME280;1001;48.87406500;9.59633600;2023-02-10T00:01:02;96756.88;;;-1.58;86.08
2000;BME280;1001;48.87406500;9.59633600;2023-02-10T00:03:29;96753.47;;;-1.58;86.69
2000;BME280;1001;48.87406500;9.59633600;2023-02-10T00:05:57;96744.50;;;-1.64;86.28
2000;BME280;1001;48.87406500;9.59633600;2023-02-10T00:08:24;96754.38;;;-1.70;86.49
2000;BME280;1001;48.87406500;9.59633600;2023-02-10T00:10:50;96740.97;;;-1.85;86.86
2000;BME280;1001;48.87406500;9.59633600;2023-02-10T00:13:17;96741.31;;;-1.89;87.40
2000;BME280;1001;48.87406500;9.59633600;2023-02-10T00:15:43;96745.63;;;-1.90;86.90
2000;BME280;1001;48.87406500;9.59633600;2023-02-10T00:18:10;96747.41;;;-2.03;87.87
2000;BME280;1001;48.87406500;9.59633600;2023-02-10T00:20:36;96746.19;;;-2.21;87.97
2000;BME280;1001;48.87406500;9.59633600;2023-02-10T00:23:04;96740.00;;;-2.30;88.61
2000;BME280;1001;48.87406500;9.59633600;2023-02-10T00:25:32;96734.47;;;-2.36;89.09
2000;BME280;1001;48.87406500;9.59633600;2023-02-10T00:27:59;96739.94;;;-2.41;90.02
2000;BME280;1001;48.87406500;9.59633600;2023-02-10T00:30:25;96741.66;;;-2.41;90.04
2000;BME280;1001;48.87406500;9.59633600;2023-02-10T00:32:52;96743.78;;;-2.46;90.20
2000;BME280;1001;48.87406500;9.59633600;2023-02-10T00:35:18;96739.69;;;-2.49;90.12
2000;BME280;1001;48.87406500;9.59633600;2023-02-10T00:37:45;96744.19;;;-2.52;89.88
2000;BME280;1001;48.87406500;9.59633600;2023-02-10T00:40:13;96744.81;;;-2.49;90.48
2000;BME280;1001;48.87406500;9.59633600;2023-02-10T00:42:40;96758.41;;;-2.48;90.53
2000;BME280;1001;48.87406500;9.59633600;2023-02-10T00:45:09;96757.38;;;-2.46;90.63
2000;BME280;1001;48.87406500;9.59633600;2023-02-10T00:47:36;96759.50;;;-2.40;90.24
2000;BME280;1001;48.87406500;9.59633600;2023-02-10T00:50:03;96756.81;;;-2.38;90.48
2000;BME280;1001;48.87406500;9.59633600;2023-02-10T00:52:30;96761.84;;;-2.37;90.88
2000;BME280;1001;48.87406500;9.59633600;2023-02-10T00:54:56;96762.06;;;-2.40;90.97
2000;BME280;1001;48.87406500;9.59633600;2023-02-10T00:57:24;96764.19;;;-2.34;90.71
2000;BME280;1001;48.87406500;9.59633600;2023-02-10T00:59:51;96763.28;;;-2.33;90.91
2000;BME280;1001;48.87406500;9.59633600;2023-02-10T01:02:18;96760.09;;;-2.36;90.95
2000;BME280;1001;48.87406500;9.59633600;2023-02-10T01:04:44;96756.94;;;-2.40;91.15
2000;BME280;1001;48.87406500;9.59633600;2023-02-10T01:07:11;96767.78;;;-2.36;91.75
2000;BME280;1001;48.87406500;9.59633600;2023-02-10T01:09:38;96770.47;;;-2.38;91.59
2000;BME280;1001;48.87406500;9.59633600;2023-02-10T01:12:04;96780.50;;;-2.35;91.42
2000;BME280;1001;48.87406500;9.59633600;2023-02-10T01:14:33;96774.66;;;-2.37;91.68
2000;BME280;1001;48.87406500;9.59633600;2023-02-10T01:17:00;96771.28;;;-2.37;91.23
2000;BME280;1001;48.87406500;9.59633600;2023-02-10T01:19:26;96769.41;;;-2.35;91.38
2000;BME280;1001;48.87406500;9.59633600;2023-02-10T01:21:53;96774.22;;;-2.31;91.81
2000;BME280;1001;48.87406500;9.59633600;2023-02-10T01:24:19;96777.47;;;-2.29;91.80
2000;BME280;1001;48.87406500;9.59633600;2023-02-10T01:26:46;96772.47;;;-2.30;91.59
2000;BME280;1001;48.87406500;9.59633600;2023-02-10T01:29:14;96772.69;;;-2.33;91.32
2000;BME280;1001;48.87406500;9.59633600;2023-02-10T01:31:42;96772.81;;;-2.35;91.54
2000;BME280;1001;48.87406500;9.59633600;2023-02-10T01:34:08;96770.25;;;-2.35;91.90
2000;BME280;1001;48.87406500;9.59633600;2023-02-10T01:36:35;96764.84;;;-2.43;91.44
2000;BME280;1001;48.87406500;9.59633600;2023-02-10T01:39:02;96762.28;;;-2.43;91.79
2000;BME280;1001;48.87406500;9.59633600;2023-02-10T01:41:28;96760.53;;;-2.42;91.88
2000;BME280;1001;48.87406500;9.59633600;2023-02-10T01:43:58;96758.81;;;-2.42;92.01
2000;BME280;1001;48.87406500;9.59633600;2023-02-10T01:46:25;96762.06;;;-2.40;92.05
2000;BME280;1001;48.87406500;9.59633600;2023-02-10T01:48:55;96761.19;;;-2.28;91.97
2000;BME280;1001;48.87406500;9.59633600;2023-02-10T01:51:26;96762.47;;;-2.22;91.44
2000;BME280;1001;48.87406500;9.59633600;2023-02-10T01:53:54;96755.63;;;-2.22;91.29
2000;BME280;1001;48.87406500;9.59633600;2023-02-10T01:56:21;96755.13;;;-2.27;90.79
2000;BME280;1001;48.87406500;9.59633600;2023-02-10T01:58:48;96767.16;;;-2.27;90.81
2000;BME280;1001;48.87406500;9.59633600;2023-02-10T02:01:16;96762.66;;;-2.36;91.33
2000;BME280;1001;48.87406500;9.59633600;2023-02-10T02:03:43;96767.72;;;-2.47;91.37
2000;BME280;1001;48.87406500;9.59633600;2023-02-10T02:06:11;96758.03;;;-2.55;91.79
2000;BME280;1001;48.87406500;9.59633600;2023-02-10T02:08:38;96767.69;;;-2.71;92.20
2000;BME280;1001;48.87406500;9.59633600;2023-02-10T02:11:12;96774.06;;;-2.77;92.72
2000;BME280;1001;48.87406500;9.59633600;2023-02-10T02:13:59;96784.53;;;-2.80;93.62
2000;BME280;1001;48.87406500;9.59633600;2023-02-10T02:16:38;96780.31;;;-2.81;93.86
2000;BME280;1001;48.87406500;9.59633600;2023-02-10T02:19:21;96786.66;;;-2.86;94.46
2000;BME280;1001;48.87406500;9.59633600;2023-02-10T02:22:27;96787.16;;;-2.81;94.64
2000;BME280;1001;48.87406500;9.59633600;2023-02-10T02:25:09;96789.22;;;-2.86;95.01
2000;BME280;1001;48.87406500;9.59633600;2023-02-10T02:28:01;96783.41;;;-2.88;95.17
2000;BME280;1001;48.87406500;9.59633600;2023-02-10T02:30:59;96780.63;;;-2.85;95.62
2000;BME280;1001;48.87406500;9.59633600;2023-02-10T02:33:33;96779.81;;;-2.86;95.27
2000;BME280;1001;48.87406500;9.59633600;2023-02-10T02:36:08;96787.34;;;-2.71;95.06
2000;BME280;1001;48.87406500;9.59633600;2023-02-10T02:38:40;96791.25;;;-2.79;94.83
2000;BME280;1001;48.87406500;9.59633600;2023-02-10T02:41:07;96792.47;;;-2.71;95.10
2000;BME280;1001;48.87406500;9.59633600;2023-02-10T02:43:35;96794.50;;;-2.64;95.13
2000;BME280;1001;48.87406500;9.59633600;2023-02-10T02:46:07;96796.03;;;-2.61;95.19
2000;BME280;1001;48.87406500;9.59633600;2023-02-10T02:48:50;96806.16;;;-2.60;95.22
2000;BME280;1001;48.87406500;9.59633600;2023-02-10T02:51:28;96807.59;;;-2.56;94.73
2000;BME280;1001;48.87406500;9.59633600;2023-02-10T02:54:04;96806.47;;;-2.52;94.65
2000;BME280;1001;48.87406500;9.59633600;2023-02-10T02:56:38;96802.38;;;-2.54;94.51
2000;BME280;1001;48.87406500;9.59633600;2023-02-10T02:59:13;96808.63;;;-2.58;94.62
2000;BME280;1001;48.87406500;9.59633600;2023-02-10T03:01:43;96805.97;;;-2.57;94.89
2000;BME280;1001;48.87406500;9.59633600;2023-02-10T03:04:15;96806.16;;;-2.60;94.40
2000;BME280;1001;48.87406500;9.59633600;2023-02-10T03:06:42;96807.31;;;-2.64;94.78
2000;BME280;1001;48.87406500;9.59633600;2023-02-10T03:09:09;96805.66;;;-2.65;95.10
2000;BME280;1001;48.87406500;9.59633600;2023-02-10T03:11:36;96805.13;;;-2.57;94.80
2000;BME280;1001;48.87406500;9.59633600;2023-02-10T03:14:03;96807.50;;;-2.54;95.08
2000;BME280;1001;48.87406500;9.59633600;2023-02-10T03:16:30;96801.53;;;-2.55;94.52
2000;BME280;1001;48.87406500;9.59633600;2023-02-10T03:18:56;96799.94;;;-2.56;94.66
2000;BME280;1001;48.87406500;9.59633600;2023-02-10T03:21:24;96802.81;;;-2.60;94.77
2000;BME280;1001;48.87406500;9.59633600;2023-02-10T03:23:51;96797.56;;;-2.59;94.87
2000;BME280;1001;48.87406500;9.59633600;2023-02-10T03:26:18;96802.19;;;-2.64;95.37
2000;BME280;1001;48.87406500;9.59633600;2023-02-10T03:28:45;96806.81;;;-2.69;95.44
2000;BME280;1001;48.87406500;9.59633600;2023-02-10T03:31:12;96819.34;;;-2.77;95.51
2000;BME280;1001;48.87406500;9.59633600;2023-02-10T03:33:38;96805.78;;;-2.79;95.92
2000;BME280;1001;48.87406500;9.59633600;2023-02-10T03:36:05;96807.00;;;-2.72;95.95
2000;BME280;1001;48.87406500;9.59633600;2023-02-10T03:38:33;96806.41;;;-2.76;96.04
2000;BME280;1001;48.87406500;9.59633600;2023-02-10T03:40:59;96803.03;;;-2.76;95.72
2000;BME280;1001;48.87406500;9.59633600;2023-02-10T03:43:26;96802.31;;;-2.78;95.99
2000;BME280;1001;48.87406500;9.59633600;2023-02-10T03:45:52;96808.28;;;-2.78;96.44
2000;BME280;1001;48.87406500;9.59633600;2023-02-10T03:48:19;96814.41;;;-2.67;96.32
2000;BME280;1001;48.87406500;9.59633600;2023-02-10T03:50:47;96809.47;;;-2.70;96.21
2000;BME280;1001;48.87406500;9.59633600;2023-02-10T03:53:14;96812.88;;;-2.70;96.02
2000;BME280;1001;48.87406500;9.59633600;2023-02-10T03:55:42;96814.69;;;-2.72;95.75
2000;BME280;1001;48.87406500;9.59633600;2023-02-10T03:58:08;96812.69;;;-2.80;95.64
2000;BME280;1001;48.87406500;9.59633600;2023-02-10T04:00:35;96816.03;;;-2.79;96.20
2000;BME280;1001;48.87406500;9.59633600;2023-02-10T04:03:02;96819.59;;;-2.69;96.41
2000;BME280;1001;48.87406500;9.59633600;2023-02-10T04:05:29;96816.34;;;-2.84;96.01
2000;BME280;1001;48.87406500;9.59633600;2023-02-10T04:07:55;96821.59;;;-2.85;96.44
2000;BME280;1001;48.87406500;9.59633600;2023-02-10T04:10:22;96815.56;;;-2.84;96.36
2000;BME280;1001;48.87406500;9.59633600;2023-02-10T04:12:50;96820.38;;;-2.92;96.92
2000;BME280;1001;48.87406500;9.59633600;2023-02-10T04:15:16;96820.75;;;-2.86;96.96
2000;BME280;1001;48.87406500;9.59633600;2023-02-10T04:17:43;96819.53;;;-2.80;96.61
2000;BME280;1001;48.87406500;9.59633600;2023-02-10T04:20:10;96821.06;;;-2.78;96.64
2000;BME280;1001;48.87406500;9.59633600;2023-02-10T04:22:37;96816.28;;;-2.82;96.65
2000;BME280;1001;48.87406500;9.59633600;2023-02-10T04:25:04;96825.69;;;-2.95;96.38
2000;BME280;1001;48.87406500;9.59633600;2023-02-10T04:27:31;96817.50;;;-3.00;97.05
2000;BME280;1001;48.87406500;9.59633600;2023-02-10T04:29:59;96823.56;;;-3.01;97.55
2000;BME280;1001;48.87406500;9.59633600;2023-02-10T04:32:25;96817.81;;;-2.92;97.38
2000;BME280;1001;48.87406500;9.59633600;2023-02-10T04:34:52;96831.31;;;-3.03;97.44
2000;BME280;1001;48.87406500;9.59633600;2023-02-10T04:37:19;96825.41;;;-3.03;97.88
2000;BME280;1001;48.87406500;9.59633600;2023-02-10T04:39:45;96825.41;;;-3.03;98.23
2000;BME280;1001;48.87406500;9.59633600;2023-02-10T04:42:12;96829.06;;;-2.95;98.22
2000;BME280;1001;48.87406500;9.59633600;2023-02-10T04:44:38;96821.06;;;-2.90;98.25
2000;BME280;1001;48.87406500;9.59633600;2023-02-10T04:47:06;96827.13;;;-2.91;98.48
2000;BME280;1001;48.87406500;9.59633600;2023-02-10T04:49:33;96833.28;;;-2.94;98.29
2000;BME280;1001;48.87406500;9.59633600;2023-02-10T04:51:59;96839.41;;;-2.96;98.33
2000;BME280;1001;48.87406500;9.59633600;2023-02-10T04:54:26;96834.69;;;-3.02;98.60
2000;BME280;1001;48.87406500;9.59633600;2023-02-10T04:56:52;96841.75;;;-2.93;98.86
2000;BME280;1001;48.87406500;9.59633600;2023-02-10T04:59:19;96840.13;;;-2.94;98.87
2000;BME280;1001;48.87406500;9.59633600;2023-02-10T05:01:45;96844.00;;;-2.89;98.91
2000;BME280;1001;48.87406500;9.59633600;2023-02-10T05:04:13;96848.31;;;-2.89;98.61
2000;BME280;1001;48.87406500;9.59633600;2023-02-10T05:06:40;96845.03;;;-2.91;98.79
2000;BME280;1001;48.87406500;9.59633600;2023-02-10T05:09:06;96846.78;;;-2.92;98.89
2000;BME280;1001;48.87406500;9.59633600;2023-02-10T05:11:33;96841.97;;;-2.96;98.98
2000;BME280;1001;48.87406500;9.59633600;2023-02-10T05:13:59;96851.91;;;-2.92;98.79
2000;BME280;1001;48.87406500;9.59633600;2023-02-10T05:16:26;96854.78;;;-2.96;98.98
2000;BME280;1001;48.87406500;9.59633600;2023-02-10T05:18:53;96861.81;;;-3.00;98.62
2000;BME280;1001;48.87406500;9.59633600;2023-02-10T05:21:21;96863.97;;;-3.06;98.67
2000;BME280;1001;48.87406500;9.59633600;2023-02-10T05:23:47;96866.94;;;-3.12;98.77
2000;BME280;1001;48.87406500;9.59633600;2023-02-10T05:26:14;96852.00;;;-3.18;99.27
2000;BME280;1001;48.87406500;9.59633600;2023-02-10T05:28:40;96860.91;;;-3.11;100.00
2000;BME280;1001;48.87406500;9.59633600;2023-02-10T05:31:07;96856.81;;;-3.14;99.94
2000;BME280;1001;48.87406500;9.59633600;2023-02-10T05:33:34;96849.31;;;-3.17;99.84
2000;BME280;1001;48.87406500;9.59633600;2023-02-10T05:36:01;96855.66;;;-3.10;99.87
2000;BME280;1001;48.87406500;9.59633600;2023-02-10T05:38:29;96859.78;;;-3.07;99.80
2000;BME280;1001;48.87406500;9.59633600;2023-02-10T05:40:56;96866.94;;;-3.00;99.82
2000;BME280;1001;48.87406500;9.59633600;2023-02-10T05:43:22;96858.34;;;-2.99;99.53
2000;BME280;1001;48.87406500;9.59633600;2023-02-10T05:45:49;96859.25;;;-3.00;99.12
2000;BME280;1001;48.87406500;9.59633600;2023-02-10T05:48:15;96864.81;;;-3.06;99.30
2000;BME280;1001;48.87406500;9.59633600;2023-02-10T05:50:42;96865.31;;;-3.13;99.16
2000;BME280;1001;48.87406500;9.59633600;2023-02-10T05:53:09;96876.66;;;-3.17;99.52
2000;BME280;1001;48.87406500;9.59633600;2023-02-10T05:55:36;96874.81;;;-3.15;99.67
2000;BME280;1001;48.87406500;9.59633600;2023-02-10T05:58:03;96879.44;;;-3.08;99.66
2000;BME280;1001;48.87406500;9.59633600;2023-02-10T06:00:30;96882.06;;;-3.09;99.32
2000;BME280;1001;48.87406500;9.59633600;2023-02-10T06:02:56;96879.31;;;-3.06;99.65
2000;BME280;1001;48.87406500;9.59633600;2023-02-10T06:05:23;96874.81;;;-3.15;99.53
2000;BME280;1001;48.87406500;9.59633600;2023-02-10T06:07:50;96884.22;;;-3.16;99.18
2000;BME280;1001;48.87406500;9.59633600;2023-02-10T06:10:16;96884.53;;;-3.20;99.87
2000;BME280;1001;48.87406500;9.59633600;2023-02-10T06:12:44;96880.56;;;-3.24;99.74
2000;BME280;1001;48.87406500;9.59633600;2023-02-10T06:15:11;96890.16;;;-3.28;100.00
2000;BME280;1001;48.87406500;9.59633600;2023-02-10T06:17:37;96892.38;;;-3.36;100.00
2000;BME280;1001;48.87406500;9.59633600;2023-02-10T06:20:05;96892.81;;;-3.29;100.00
2000;BME280;1001;48.87406500;9.59633600;2023-02-10T06:22:32;96892.28;;;-3.34;100.00
2000;BME280;1001;48.87406500;9.59633600;2023-02-10T06:24:58;96898.53;;;-3.26;100.00
2000;BME280;1001;48.87406500;9.59633600;2023-02-10T06:27:25;96902.25;;;-3.17;100.00
2000;BME280;1001;48.87406500;9.59633600;2023-02-10T06:29:53;96900.28;;;-3.14;100.00
2000;BME280;1001;48.87406500;9.59633600;2023-02-10T06:32:19;96897.63;;;-3.12;99.94
2000;BME280;1001;48.87406500;9.59633600;2023-02-10T06:34:46;96902.66;;;-3.11;99.79
2000;BME280;1001;48.87406500;9.59633600;2023-02-10T06:37:12;96898.13;;;-3.07;99.74
2000;BME280;1001;48.87406500;9.59633600;2023-02-10T06:39:39;96905.81;;;-3.07;99.66
2000;BME280;1001;48.87406500;9.59633600;2023-02-10T06:42:06;96914.22;;;-3.18;99.78
2000;BME280;1001;48.87406500;9.59633600;2023-02-10T06:44:32;96925.28;;;-3.17;99.51
2000;BME280;1001;48.87406500;9.59633600;2023-02-10T06:47:00;96926.38;;;-3.21;99.93
2000;BME280;1001;48.87406500;9.59633600;2023-02-10T06:49:27;96926.06;;;-3.17;100.00
2000;BME280;1001;48.87406500;9.59633600;2023-02-10T06:51:53;96927.31;;;-3.22;100.00
2000;BME280;1001;48.87406500;9.59633600;2023-02-10T06:54:20;96933.84;;;-3.18;100.00
2000;BME280;1001;48.87406500;9.59633600;2023-02-10T06:56:47;96938.25;;;-3.20;100.00
2000;BME280;1001;48.87406500;9.59633600;2023-02-10T06:59:15;96942.94;;;-3.14;100.00
2000;BME280;1001;48.87406500;9.59633600;2023-02-10T07:01:42;96937.25;;;-3.05;100.00
2000;BME280;1001;48.87406500;9.59633600;2023-02-10T07:04:10;96946.78;;;-2.95;100.00
2000;BME280;1001;48.87406500;9.59633600;2023-02-10T07:06:37;96942.78;;;-2.86;100.00
2000;BME280;1001;48.87406500;9.59633600;2023-02-10T07:09:04;96952.13;;;-2.72;100.00
2000;BME280;1001;48.87406500;9.59633600;2023-02-10T07:11:31;96945.97;;;-2.57;99.50
2000;BME280;1001;48.87406500;9.59633600;2023-02-10T07:13:57;96941.66;;;-2.44;98.28
2000;BME280;1001;48.87406500;9.59633600;2023-02-10T07:16:24;96940.53;;;-2.40;97.31
2000;BME280;1001;48.87406500;9.59633600;2023-02-10T07:18:51;96939.28;;;-2.35;97.10
2000;BME280;1001;48.87406500;9.59633600;2023-02-10T07:21:18;96946.88;;;-2.33;97.00
2000;BME280;1001;48.87406500;9.59633600;2023-02-10T07:23:45;96952.63;;;-2.30;96.49
2000;BME280;1001;48.87406500;9.59633600;2023-02-10T07:26:12;96945.53;;;-2.26;96.36
2000;BME280;1001;48.87406500;9.59633600;2023-02-10T07:28:43;96946.47;;;-2.27;95.77
2000;BME280;1001;48.87406500;9.59633600;2023-02-10T07:31:09;96955.88;;;-2.28;95.82
2000;BME280;1001;48.87406500;9.59633600;2023-02-10T07:33:36;96960.88;;;-2.26;96.06
2000;BME280;1001;48.87406500;9.59633600;2023-02-10T07:36:04;96966.63;;;-2.23;96.32
2000;BME280;1001;48.87406500;9.59633600;2023-02-10T07:38:33;96959.44;;;-2.18;96.49
2000;BME280;1001;48.87406500;9.59633600;2023-02-10T07:40:59;96963.13;;;-2.09;96.54
2000;BME280;1001;48.87406500;9.59633600;2023-02-10T07:43:26;96967.59;;;-2.00;96.19
2000;BME280;1001;48.87406500;9.59633600;2023-02-10T07:45:53;96969.53;;;-1.91;95.75
2000;BME280;1001;48.87406500;9.59633600;2023-02-10T07:48:19;96967.97;;;-1.81;96.34
2000;BME280;1001;48.87406500;9.59633600;2023-02-10T07:50:47;96961.78;;;-1.66;96.46
2000;BME280;1001;48.87406500;9.59633600;2023-02-10T07:53:14;96964.44;;;-1.44;95.36
2000;BME280;1001;48.87406500;9.59633600;2023-02-10T07:55:42;96964.97;;;-1.27;94.43
2000;BME280;1001;48.87406500;9.59633600;2023-02-10T07:58:08;96965.59;;;-1.13;93.74
2000;BME280;1001;48.87406500;9.59633600;2023-02-10T08:00:35;96965.88;;;-1.05;93.01
2000;BME280;1001;48.87406500;9.59633600;2023-02-10T08:03:02;96967.22;;;-0.88;93.01
2000;BME280;1001;48.87406500;9.59633600;2023-02-10T08:05:30;96963.16;;;-0.69;91.00
2000;BME280;1001;48.87406500;9.59633600;2023-02-10T08:07:56;96961.44;;;-0.57;90.17
2000;BME280;1001;48.87406500;9.59633600;2023-02-10T08:10:23;96965.75;;;-0.46;89.10
2000;BME280;1001;48.87406500;9.59633600;2023-02-10T08:12:51;96960.88;;;-0.38;88.48
2000;BME280;1001;48.87406500;9.59633600;2023-02-10T08:15:17;96966.47;;;-0.22;88.01
2000;BME280;1001;48.87406500;9.59633600;2023-02-10T08:17:46;96958.41;;;-0.07;87.69
2000;BME280;1001;48.87406500;9.59633600;2023-02-10T08:20:12;96972.66;;;0.09;87.90
2000;BME280;1001;48.87406500;9.59633600;2023-02-10T08:22:39;96976.25;;;0.17;88.45
2000;BME280;1001;48.87406500;9.59633600;2023-02-10T08:25:05;96973.94;;;0.25;87.60
2000;BME280;1001;48.87406500;9.59633600;2023-02-10T08:27:32;96979.88;;;0.37;87.13
2000;BME280;1001;48.87406500;9.59633600;2023-02-10T08:30:00;96978.91;;;0.49;86.14
2000;BME280;1001;48.87406500;9.59633600;2023-02-10T08:32:29;96978.41;;;0.55;85.75
2000;BME280;1001;48.87406500;9.59633600;2023-02-10T08:34:56;96983.91;;;0.61;85.81
2000;BME280;1001;48.87406500;9.59633600;2023-02-10T08:37:22;96986.34;;;0.63;85.08
2000;BME280;1001;48.87406500;9.59633600;2023-02-10T08:39:49;96991.19;;;0.56;84.02
2000;BME280;1001;48.87406500;9.59633600;2023-02-10T08:42:15;96994.69;;;0.55;83.19
2000;BME280;1001;48.87406500;9.59633600;2023-02-10T08:44:42;96990.44;;;0.65;83.02
2000;BME280;1001;48.87406500;9.59633600;2023-02-10T08:47:10;96988.34;;;0.59;83.70
2000;BME280;1001;48.87406500;9.59633600;2023-02-10T08:49:39;96993.47;;;0.71;83.90
2000;BME280;1001;48.87406500;9.59633600;2023-02-10T08:52:06;96989.44;;;0.89;83.82
2000;BME280;1001;48.87406500;9.59633600;2023-02-10T08:54:33;96990.06;;;1.02;82.74
2000;BME280;1001;48.87406500;9.59633600;2023-02-10T08:56:59;96996.84;;;1.03;82.78
2000;BME280;1001;48.87406500;9.59633600;2023-02-10T08:59:26;96996.25;;;1.10;81.42
2000;BME280;1001;48.87406500;9.59633600;2023-02-10T09:01:52;96994.25;;;1.34;80.65
2000;BME280;1001;48.87406500;9.59633600;2023-02-10T09:04:21;96998.50;;;1.45;80.35
2000;BME280;1001;48.87406500;9.59633600;2023-02-10T09:06:47;97005.31;;;1.46;80.07
2000;BME280;1001;48.87406500;9.59633600;2023-02-10T09:09:16;96999.41;;;1.55;79.80
2000;BME280;1001;48.87406500;9.59633600;2023-02-10T09:11:45;96992.22;;;1.59;79.69
2000;BME280;1001;48.87406500;9.59633600;2023-02-10T09:14:12;96998.41;;;1.47;79.20
2000;BME280;1001;48.87406500;9.59633600;2023-02-10T09:16:38;96995.78;;;1.37;77.83
2000;BME280;1001;48.87406500;9.59633600;2023-02-10T09:19:05;96990.69;;;1.47;77.76
2000;BME280;1001;48.87406500;9.59633600;2023-02-10T09:21:33;96994.25;;;1.55;78.24
2000;BME280;1001;48.87406500;9.59633600;2023-02-10T09:24:00;96998.34;;;1.58;77.45
2000;BME280;1001;48.87406500;9.59633600;2023-02-10T09:26:26;96995.50;;;1.61;76.99
2000;BME280;1001;48.87406500;9.59633600;2023-02-10T09:28:53;97000.00;;;1.68;78.01
2000;BME280;1001;48.87406500;9.59633600;2023-02-10T09:31:19;97000.63;;;1.81;79.18
2000;BME280;1001;48.87406500;9.59633600;2023-02-10T09:33:47;96991.19;;;1.91;77.24
2000;BME280;1001;48.87406500;9.59633600;2023-02-10T09:36:16;97002.34;;;2.01;76.97
2000;BME280;1001;48.87406500;9.59633600;2023-02-10T09:38:44;97002.56;;;2.19;77.46
2000;BME280;1001;48.87406500;9.59633600;2023-02-10T09:41:19;97007.06;;;1.96;75.05
2000;BME280;1001;48.87406500;9.59633600;2023-02-10T09:44:05;97011.53;;;2.15;75.97
2000;BME280;1001;48.87406500;9.59633600;2023-02-10T09:46:46;97005.53;;;2.15;76.68
2000;BME280;1001;48.87406500;9.59633600;2023-02-10T09:49:22;97010.09;;;2.32;75.96
2000;BME280;1001;48.87406500;9.59633600;2023-02-10T09:52:02;97010.72;;;2.24;73.97
2000;BME280;1001;48.87406500;9.59633600;2023-02-10T09:54:34;97007.50;;;2.32;74.68
2000;BME280;1001;48.87406500;9.59633600;2023-02-10T09:57:03;97015.34;;;2.30;75.07
2000;BME280;1001;48.87406500;9.59633600;2023-02-10T09:59:32;97014.53;;;2.30;74.32
2000;BME280;1001;48.87406500;9.59633600;2023-02-10T10:02:07;97017.13;;;2.30;72.87
2000;BME280;1001;48.87406500;9.59633600;2023-02-10T10:04:38;97016.03;;;2.32;72.76
2000;BME280;1001;48.87406500;9.59633600;2023-02-10T10:07:14;97018.63;;;2.32;71.40
2000;BME280;1001;48.87406500;9.59633600;2023-02-10T10:09:46;97022.72;;;2.35;71.51
2000;BME280;1001;48.87406500;9.59633600;2023-02-10T10:12:18;97023.84;;;2.51;72.00
2000;BME280;1001;48.87406500;9.59633600;2023-02-10T10:14:46;97021.00;;;2.54;71.24
2000;BME280;1001;48.87406500;9.59633600;2023-02-10T10:17:38;97020.44;;;2.41;70.28
2000;BME280;1001;48.87406500;9.59633600;2023-02-10T10:20:29;97023.59;;;2.54;71.52
2000;BME280;1001;48.87406500;9.59633600;2023-02-10T10:23:12;97024.16;;;2.67;70.74
2000;BME280;1001;48.87406500;9.59633600;2023-02-10T10:25:58;97020.50;;;2.70;69.98
2000;BME280;1001;48.87406500;9.59633600;2023-02-10T10:28:35;97015.50;;;2.88;70.13
2000;BME280;1001;48.87406500;9.59633600;2023-02-10T10:31:09;97018.47;;;2.73;69.06
2000;BME280;1001;48.87406500;9.59633600;2023-02-10T10:33:41;97024.16;;;2.58;70.41
2000;BME280;1001;48.87406500;9.59633600;2023-02-10T10:36:13;97019.09;;;2.56;69.44
2000;BME280;1001;48.87406500;9.59633600;2023-02-10T10:38:44;97017.38;;;2.66;70.56
2000;BME280;1001;48.87406500;9.59633600;2023-02-10T10:41:14;97014.53;;;2.69;70.26
2000;BME280;1001;48.87406500;9.59633600;2023-02-10T10:43:44;97019.28;;;2.74;68.81
2000;BME280;1001;48.87406500;9.59633600;2023-02-10T10:46:14;97021.47;;;2.79;69.39
2000;BME280;1001;48.87406500;9.59633600;2023-02-10T10:48:43;97031.38;;;2.73;66.65
2000;BME280;1001;48.87406500;9.59633600;2023-02-10T10:51:11;97027.84;;;2.84;68.91
2000;BME280;1001;48.87406500;9.59633600;2023-02-10T10:53:40;97022.69;;;2.94;69.30
2000;BME280;1001;48.87406500;9.59633600;2023-02-10T10:56:15;97015.09;;;3.02;68.10
2000;BME280;1001;48.87406500;9.59633600;2023-02-10T10:58:45;97027.72;;;2.76;66.69
2000;BME280;1001;48.87406500;9.59633600;2023-02-10T11:01:13;97022.59;;;3.14;69.45
2000;BME280;1001;48.87406500;9.59633600;2023-02-10T11:03:40;97018.09;;;3.26;68.31
2000;BME280;1001;48.87406500;9.59633600;2023-02-10T11:06:08;97012.13;;;3.25;68.56
2000;BME280;1001;48.87406500;9.59633600;2023-02-10T11:08:38;97011.69;;;3.39;69.98
2000;BME280;1001;48.87406500;9.59633600;2023-02-10T11:11:09;97016.34;;;3.36;69.08
2000;BME280;1001;48.87406500;9.59633600;2023-02-10T11:13:40;97009.78;;;3.41;67.13
2000;BME280;1001;48.87406500;9.59633600;2023-02-10T11:16:10;97016.03;;;3.39;68.24
2000;BME280;1001;48.87406500;9.59633600;2023-02-10T11:18:51;97009.09;;;3.49;64.86
2000;BME280;1001;48.87406500;9.59633600;2023-02-10T11:21:18;97005.97;;;3.45;65.32
2000;BME280;1001;48.87406500;9.59633600;2023-02-10T11:23:47;97008.84;;;3.42;64.78
2000;BME280;1001;48.87406500;9.59633600;2023-02-10T11:26:19;97009.66;;;3.43;67.68
2000;BME280;1001;48.87406500;9.59633600;2023-02-10T11:28:48;97010.03;;;3.48;65.46
2000;BME280;1001;48.87406500;9.59633600;2023-02-10T11:31:25;97004.44;;;3.53;65.95
2000;BME280;1001;48.87406500;9.59633600;2023-02-10T11:33:56;96999.41;;;3.61;67.87
2000;BME280;1001;48.87406500;9.59633600;2023-02-10T11:36:30;97006.75;;;3.65;66.15
2000;BME280;1001;48.87406500;9.59633600;2023-02-10T11:39:01;96997.22;;;3.66;63.94
2000;BME280;1001;48.87406500;9.59633600;2023-02-10T11:41:29;96988.66;;;3.56;64.13
2000;BME280;1001;48.87406500;9.59633600;2023-02-10T11:43:57;97008.28;;;3.29;64.44
2000;BME280;1001;48.87406500;9.59633600;2023-02-10T11:46:25;96997.66;;;3.52;64.88
2000;BME280;1001;48.87406500;9.59633600;2023-02-10T11:48:54;96995.91;;;3.42;65.21
2000;BME280;1001;48.87406500;9.59633600;2023-02-10T11:51:21;96996.69;;;3.53;64.99
2000;BME280;1001;48.87406500;9.59633600;2023-02-10T11:53:49;96992.47;;;3.71;67.21